Time;durP1;ratioP1;P1;durP2;ratioP2;P2;SDS_P1;SDS_P2;PMS_P1;PMS_P2;Temp;Humidity;BMP_temperature;BMP_pressure;BME280_temperature;BME280_humidity;BME280_pressure;Samples;Min_cycle;Max_cycle;Signal;HPM_P1;HPM_P2
2021/01/02 00:00:49;;;;;;;12.27;7.30;;;;;;;0.39;100.00;100450.75;5037962;28;20049;-70
2021/01/02 00:03:38;;;;;;;14.30;7.57;;;;;;;0.39;100.00;100455.94;5021541;28;20465;-70
2021/01/02 00:06:09;;;;;;;11.60;6.50;;;;;;;0.41;100.00;100449.03;5010637;28;20056;-70
2021/01/02 00:08:38;;;;;;;12.67;6.77;;;;;;;0.39;100.00;100449.03;5024322;28;20106;-70
2021/01/02 00:11:32;;;;;;;12.43;7.53;;;;;;;0.39;100.00;100449.03;5020906;28;20083;-70
2021/01/02 00:14:22;;;;;;;13.53;7.07;;;;;;;0.36;100.00;100450.72;4981926;28;20049;-68
2021/01/02 00:17:07;;;;;;;12.63;7.73;;;;;;;0.36;100.00;100450.72;5022020;28;20068;-70
2021/01/02 00:19:59;;;;;;;12.48;7.15;;;;;;;0.38;100.00;100455.06;5035677;28;20029;-70
2021/01/02 00:22:44;;;;;;;13.20;7.60;;;;;;;0.35;100.00;100444.63;5032193;28;20037;-70
2021/01/02 00:25:14;;;;;;;11.80;7.27;;;;;;;0.42;100.00;100449.09;5034770;28;20033;-70
2021/01/02 00:27:45;;;;;;;10.53;7.13;;;;;;;0.36;100.00;100443.78;5009702;28;20049;-70
2021/01/02 00:30:17;;;;;;;12.37;8.00;;;;;;;0.32;100.00;100448.88;5020074;28;20092;-70
2021/01/02 00:32:53;;;;;;;12.93;7.17;;;;;;;0.27;100.00;100454.03;5032599;28;20041;-70
2021/01/02 00:35:21;;;;;;;12.77;7.60;;;;;;;0.24;100.00;100456.53;5013681;28;20060;-72
2021/01/02 00:38:05;;;;;;;14.43;8.37;;;;;;;0.15;100.00;100458.97;5031686;28;20087;-72
2021/01/02 00:40:33;;;;;;;17.47;8.87;;;;;;;0.09;100.00;100456.28;4999457;28;20045;-71
2021/01/02 00:43:00;;;;;;;17.87;10.40;;;;;;;-0.02;100.00;100462.13;5017206;28;20041;-72
2021/01/02 00:45:28;;;;;;;34.27;17.60;;;;;;;-0.08;100.00;100456.84;5018952;28;20048;-71
2021/01/02 00:47:55;;;;;;;20.13;11.17;;;;;;;-0.12;100.00;100460.22;5020506;28;20077;-72
2021/01/02 00:50:23;;;;;;;16.87;8.80;;;;;;;-0.17;100.00;100467.06;5001492;28;20032;-71
2021/01/02 00:53:03;;;;;;;13.40;7.70;;;;;;;-0.23;100.00;100473.84;5008768;28;20045;-72
2021/01/02 00:55:58;;;;;;;11.93;6.37;;;;;;;-0.33;100.00;100475.38;5007505;28;20045;-71
2021/01/02 00:58:33;;;;;;;19.42;10.48;;;;;;;-0.38;100.00;100466.63;5005972;28;20044;-72
2021/01/02 01:01:05;;;;;;;12.47;7.03;;;;;;;-0.45;100.00;100464.72;5039955;28;20521;-72
2021/01/02 01:03:34;;;;;;;12.87;7.57;;;;;;;-0.48;100.00;100468.16;5036804;28;20096;-72
2021/01/02 01:06:03;;;;;;;14.67;7.43;;;;;;;-0.51;100.00;100470.66;5041178;28;20045;-72
2021/01/02 01:08:34;;;;;;;13.37;7.70;;;;;;;-0.52;100.00;100474.09;5012904;28;20498;-71
2021/01/02 01:11:08;;;;;;;12.63;7.40;;;;;;;-0.56;100.00;100469.72;5016876;28;20127;-71
2021/01/02 01:13:37;;;;;;;12.15;7.13;;;;;;;-0.55;100.00;100479.25;5023925;28;20106;-72
2021/01/02 01:16:03;;;;;;;11.83;8.33;;;;;;;-0.62;100.00;100479.94;5020159;28;20044;-72
2021/01/02 01:19:03;;;;;;;14.53;7.00;;;;;;;-0.63;100.00;100475.59;5021580;28;20037;-71
2021/01/02 01:21:34;;;;;;;14.10;7.27;;;;;;;-0.64;100.00;100485.09;5000159;28;20038;-72
2021/01/02 01:24:22;;;;;;;16.07;7.97;;;;;;;-0.62;100.00;100482.53;5034900;28;20876;-71
2021/01/02 01:27:19;;;;;;;14.20;8.23;;;;;;;-0.62;100.00;100483.41;5028567;28;20045;-71
2021/01/02 01:29:48;;;;;;;11.70;7.00;;;;;;;-0.63;100.00;100480.78;5029305;28;20044;-71
2021/01/02 01:32:19;;;;;;;14.87;8.33;;;;;;;-0.64;100.00;100484.22;5009770;28;20684;-72
2021/01/02 01:34:47;;;;;;;13.13;7.63;;;;;;;-0.64;100.00;100479.91;5013676;28;20061;-71
2021/01/02 01:37:15;;;;;;;11.50;7.60;;;;;;;-0.62;100.00;100480.81;5017841;28;20044;-72
2021/01/02 01:39:50;;;;;;;13.20;7.40;;;;;;;-0.63;100.00;100478.19;4981488;28;20398;-72
2021/01/02 01:42:36;;;;;;;14.83;7.60;;;;;;;-0.62;100.00;100475.63;5026419;28;20094;-72
2021/01/02 01:45:20;;;;;;;17.70;9.17;;;;;;;-0.60;100.00;100479.13;5019788;28;20119;-71
2021/01/02 01:47:57;;;;;;;12.33;7.53;;;;;;;-0.63;100.00;100480.78;5037911;28;20072;-71
2021/01/02 01:50:26;;;;;;;11.87;7.17;;;;;;;-0.64;100.00;100484.22;5002861;28;20521;-71
2021/01/02 01:53:18;;;;;;;14.73;7.83;;;;;;;-0.65;100.00;100482.47;5002128;28;20053;-71
2021/01/02 01:55:56;;;;;;;13.70;8.30;;;;;;;-0.69;100.00;100486.72;5013966;28;20050;-71
2021/01/02 01:58:42;;;;;;;13.37;6.97;;;;;;;-0.70;100.00;100487.56;4988946;28;20038;-72
2021/01/02 02:01:08;;;;;;;14.10;8.07;;;;;;;-0.70;100.00;100494.47;5031223;28;20040;-72
2021/01/02 02:03:36;;;;;;;14.37;7.47;;;;;;;-0.73;100.00;100495.28;5020757;28;20186;-72
2021/01/02 02:06:12;;;;;;;12.47;7.10;;;;;;;-0.74;100.00;100488.34;4996843;28;20045;-71
2021/01/02 02:08:43;;;;;;;13.77;7.60;;;;;;;-0.75;100.00;100489.19;5001166;28;20083;-72
2021/01/02 02:11:30;;;;;;;13.67;7.70;;;;;;;-0.75;100.00;100484.00;5017760;28;20057;-72
2021/01/02 02:14:00;;;;;;;13.37;7.93;;;;;;;-0.71;100.00;100492.72;4998752;28;20491;-72
2021/01/02 02:25:59;;;;;;;13.20;7.97;;;;;;;-0.57;100.00;100491.31;4896792;29;20135;-91
2021/01/02 02:28:25;;;;;;;15.20;8.17;;;;;;;-0.55;100.00;100489.63;4894683;29;20157;-89
2021/01/02 02:30:54;;;;;;;14.77;7.60;;;;;;;-0.51;100.00;100495.72;4894339;29;20091;-90
2021/01/02 02:33:24;;;;;;;16.20;7.70;;;;;;;-0.49;100.00;100499.25;4878411;29;20143;-90
2021/01/02 02:35:51;;;;;;;15.57;7.13;;;;;;;-0.45;100.00;100499.34;4874937;29;20051;-90
2021/01/02 02:38:18;;;;;;;13.13;7.60;;;;;;;-0.44;100.00;100503.69;4878306;29;20049;-90
2021/01/02 02:40:44;;;;;;;14.40;7.87;;;;;;;-0.43;100.00;100495.06;4867693;29;20048;-90
2021/01/02 02:43:11;;;;;;;14.37;7.40;;;;;;;-0.40;100.00;100502.06;4880990;29;20135;-90
2021/01/02 02:45:37;;;;;;;11.23;6.93;;;;;;;-0.38;100.00;100508.16;4900797;29;20044;-90
2021/01/02 02:48:04;;;;;;;13.87;7.97;;;;;;;-0.33;100.00;100507.41;4874458;29;20560;-90
2021/01/02 02:50:31;;;;;;;13.50;7.13;;;;;;;-0.33;100.00;100507.41;4875372;29;20304;-90
2021/01/02 02:53:11;;;;;;;12.90;6.93;;;;;;;-0.29;100.00;100505.75;4894985;29;20470;-90
2021/01/02 02:55:38;;;;;;;12.57;7.13;;;;;;;-0.29;100.00;100508.34;4886196;29;20087;-89
2021/01/02 02:58:05;;;;;;;10.13;5.70;;;;;;;-0.23;100.00;100512.78;4924631;28;20073;-90
2021/01/02 03:00:33;;;;;;;13.73;7.50;;;;;;;-0.23;100.00;100508.47;4945449;28;20039;-90
2021/01/02 03:03:00;;;;;;;12.67;7.47;;;;;;;-0.21;100.00;100509.38;4922886;28;20078;-90
2021/01/02 03:05:27;;;;;;;15.80;6.47;;;;;;;-0.20;100.00;100503.31;4936114;29;20464;-90
2021/01/02 03:07:53;;;;;;;14.73;7.37;;;;;;;-0.14;100.00;100508.66;4938938;28;20047;-91
2021/01/02 03:10:21;;;;;;;12.33;6.80;;;;;;;-0.14;100.00;100510.38;4924375;28;20054;-90
2021/01/02 03:12:49;;;;;;;10.33;6.13;;;;;;;-0.11;100.00;100515.63;4921975;28;20133;-90
2021/01/02 03:15:22;;;;;;;14.30;7.23;;;;;;;-0.11;100.00;100513.91;4917357;28;20055;-90
2021/01/02 03:17:49;;;;;;;10.17;5.40;;;;;;;-0.09;100.00;100517.38;4919715;28;20139;-89
2021/01/02 03:20:17;;;;;;;8.37;4.83;;;;;;;-0.09;100.00;100517.38;4924389;28;20051;-90
2021/01/02 03:22:47;;;;;;;7.90;5.17;;;;;;;-0.06;100.00;100519.19;4921899;28;20047;-90
2021/01/02 03:25:16;;;;;;;10.13;5.97;;;;;;;-0.09;100.00;100517.38;4930564;28;20047;-90
2021/01/02 03:27:42;;;;;;;8.20;5.10;;;;;;;-0.06;100.00;100517.47;4939923;28;20117;-89
2021/01/02 03:30:11;;;;;;;7.93;5.10;;;;;;;-0.06;100.00;100524.38;4933075;28;20077;-88
2021/01/02 03:32:38;;;;;;;7.73;4.80;;;;;;;-0.02;100.00;100529.66;4938077;29;20043;-89
2021/01/02 03:35:10;;;;;;;8.37;4.73;;;;;;;0.01;100.00;100534.06;4929104;28;20057;-90
2021/01/02 03:37:39;;;;;;;8.67;5.20;;;;;;;0.02;100.00;100533.22;4919665;28;20062;-90
2021/01/02 03:40:06;;;;;;;8.73;4.60;;;;;;;0.04;100.00;100538.44;4936422;28;20045;-90
2021/01/02 03:42:40;;;;;;;8.57;4.90;;;;;;;0.03;100.00;100537.56;4919283;29;20054;-90
2021/01/02 03:45:09;;;;;;;7.63;4.78;;;;;;;0.05;100.00;100532.38;4933635;28;20051;-89
2021/01/02 03:47:36;;;;;;;8.30;4.20;;;;;;;0.06;100.00;100536.72;4925016;28;20043;-90
2021/01/02 03:50:06;;;;;;;9.00;4.60;;;;;;;0.04;100.00;100538.44;4922062;28;20130;-90
2021/01/02 03:52:35;;;;;;;6.40;4.23;;;;;;;0.05;100.00;100535.84;4922568;29;20106;-90
2021/01/02 03:55:04;;;;;;;8.10;4.87;;;;;;;0.06;100.00;100539.34;4939135;29;20050;-90
2021/01/02 03:57:30;;;;;;;6.43;3.93;;;;;;;0.07;100.00;100544.53;4922841;29;20094;-90
2021/01/02 03:59:56;;;;;;;7.17;4.47;;;;;;;0.09;100.00;100537.69;4922622;29;20069;-90
2021/01/02 04:02:25;;;;;;;6.27;3.90;;;;;;;0.08;100.00;100543.69;4923032;29;20660;-90
2021/01/02 04:04:52;;;;;;;6.13;3.83;;;;;;;0.08;100.00;100535.91;4906845;29;20412;-91
2021/01/02 04:07:19;;;;;;;6.33;4.33;;;;;;;0.11;100.00;100538.59;4937922;29;20043;-90
2021/01/02 04:09:46;;;;;;;5.47;3.23;;;;;;;0.16;100.00;100539.53;4922734;29;20050;-90
2021/01/02 04:12:16;;;;;;;7.10;4.20;;;;;;;0.16;100.00;100538.66;4939534;29;20039;-92
2021/01/02 04:14:42;;;;;;;7.10;4.17;;;;;;;0.16;100.00;100542.13;4941019;29;20039;-89
2021/01/02 04:17:08;;;;;;;8.93;3.83;;;;;;;0.15;100.00;100537.78;4932262;29;20050;-91
2021/01/02 04:19:37;;;;;;;5.90;4.33;;;;;;;0.12;100.00;100540.34;4952385;29;20047;-90
2021/01/02 04:22:04;;;;;;;7.73;4.43;;;;;;;0.11;100.00;100546.38;4945963;29;20043;-90
2021/01/02 04:24:30;;;;;;;6.27;3.87;;;;;;;0.12;100.00;100544.66;4929789;29;20415;-90
2021/01/02 04:27:00;;;;;;;8.03;4.40;;;;;;;0.08;100.00;100540.22;4942824;29;20046;-92
2021/01/02 04:29:28;;;;;;;9.23;3.63;;;;;;;0.07;100.00;100543.69;4951027;29;20137;-90
2021/01/02 04:31:55;;;;;;;6.17;3.83;;;;;;;0.05;100.00;100543.66;4928485;29;20156;-91
2021/01/02 04:34:23;;;;;;;8.30;4.20;;;;;;;0.03;100.00;100539.28;4925416;29;20465;-91
2021/01/02 04:36:49;;;;;;;7.20;3.80;;;;;;;0.03;100.00;100544.47;4924346;29;20134;-91
2021/01/02 04:39:16;;;;;;;6.57;4.20;;;;;;;0.04;100.00;100549.69;4905922;29;20134;-90
2021/01/02 04:41:43;;;;;;;7.60;3.80;;;;;;;0.02;100.00;100550.53;4921553;29;20078;-90
2021/01/02 04:44:10;;;;;;;6.83;3.97;;;;;;;0.01;100.00;100549.66;4921727;29;20074;-91
2021/01/02 04:46:38;;;;;;;6.67;4.33;;;;;;;0.01;100.00;100549.66;4922385;29;20051;-91
2021/01/02 04:49:05;;;;;;;8.67;4.30;;;;;;;-0.03;100.00;100551.28;4906229;29;20043;-90
2021/01/02 04:51:33;;;;;;;6.73;3.60;;;;;;;-0.06;100.00;100551.22;4921500;29;20047;-90
2021/01/02 04:54:02;;;;;;;8.10;3.63;;;;;;;-0.06;100.00;100551.22;4937368;29;20075;-91
2021/01/02 04:56:33;;;;;;;7.23;3.67;;;;;;;-0.08;100.00;100558.13;4922016;29;20070;-91
2021/01/02 04:59:10;;;;;;;9.47;4.53;;;;;;;-0.10;100.00;100558.91;4906417;29;20497;-90
2021/01/02 05:01:41;;;;;;;6.23;4.00;;;;;;;-0.08;100.00;100562.44;4921729;29;20051;-90
2021/01/02 05:04:08;;;;;;;6.97;4.30;;;;;;;-0.08;100.00;100565.91;4921658;29;20058;-91
2021/01/02 05:06:35;;;;;;;7.47;4.10;;;;;;;-0.07;100.00;100562.47;4921503;29;20043;-90
2021/01/02 05:09:05;;;;;;;7.83;4.50;;;;;;;-0.08;100.00;100568.50;4920676;29;20489;-90
2021/01/02 05:11:39;;;;;;;8.13;4.73;;;;;;;-0.06;100.00;100576.31;4937188;29;20047;-90
2021/01/02 05:14:06;;;;;;;6.30;4.72;;;;;;;-0.06;100.00;100566.81;4921336;29;20058;-90
2021/01/02 05:16:41;;;;;;;6.83;4.17;;;;;;;-0.07;100.00;100562.47;4920885;29;20047;-90
2021/01/02 05:19:13;;;;;;;7.32;4.35;;;;;;;-0.06;100.00;100569.41;4906319;29;20454;-90
2021/01/02 05:21:46;;;;;;;8.23;4.73;;;;;;;-0.05;100.00;100573.75;4936580;29;20090;-90
2021/01/02 05:24:19;;;;;;;9.70;4.97;;;;;;;-0.05;100.00;100576.34;4905555;29;20050;-90
2021/01/02 05:26:46;;;;;;;11.40;5.27;;;;;;;-0.10;100.00;100577.97;4920544;29;20143;-90
2021/01/02 05:29:18;;;;;;;7.90;4.30;;;;;;;-0.12;100.00;100584.84;4920353;29;20050;-91
2021/01/02 05:31:50;;;;;;;8.77;5.07;;;;;;;-0.15;100.00;100577.00;4904468;29;20528;-91
2021/01/02 05:34:18;;;;;;;10.47;5.80;;;;;;;-0.17;100.00;100583.91;4920389;29;20071;-90
2021/01/02 05:36:45;;;;;;;9.37;5.40;;;;;;;-0.17;100.00;100583.91;4920497;29;20039;-90
2021/01/02 05:39:17;;;;;;;10.47;5.57;;;;;;;-0.17;100.00;100586.50;4921233;29;20035;-90
2021/01/02 05:41:54;;;;;;;7.70;4.83;;;;;;;-0.20;100.00;100585.53;4920771;29;20300;-91
2021/01/02 05:44:22;;;;;;;8.63;5.00;;;;;;;-0.18;100.00;100589.03;4922057;29;20394;-91
2021/01/02 05:46:53;;;;;;;9.63;5.30;;;;;;;-0.17;100.00;100595.97;4921944;29;20047;-91
2021/01/02 05:49:50;;;;;;;9.77;5.17;;;;;;;-0.21;100.00;100591.56;4921294;29;20094;-90
2021/01/02 05:52:17;;;;;;;8.93;5.40;;;;;;;-0.20;100.00;100591.59;4913030;29;20061;-90
2021/01/02 05:54:47;;;;;;;12.43;6.40;;;;;;;-0.19;100.00;100593.34;4905683;29;20049;-91
2021/01/02 05:57:27;;;;;;;10.60;5.17;;;;;;;-0.21;100.00;100600.22;4936474;29;20043;-90
2021/01/02 05:59:58;;;;;;;10.83;5.00;;;;;;;-0.19;100.00;100603.72;4920923;29;20043;-90
2021/01/02 06:02:30;;;;;;;11.00;5.83;;;;;;;-0.16;100.00;100605.53;4936145;29;20055;-91
2021/01/02 06:05:05;;;;;;;11.60;5.97;;;;;;;-0.16;100.00;100608.13;4922042;29;20497;-90
2021/01/02 06:07:32;;;;;;;;;;;;;;;-0.16;100.00;100616.81;4922624;29;20051;-91
2021/01/02 06:10:00;;;;;;;7.27;4.33;;;;;;;-0.16;100.00;100610.75;4925637;29;20302;-91
2021/01/02 06:12:31;;;;;;;9.70;5.93;;;;;;;-0.15;100.00;100615.09;4925377;29;20500;-90
2021/01/02 06:15:03;;;;;;;9.80;5.77;;;;;;;-0.15;100.00;100613.38;4925548;29;20134;-90
2021/01/02 06:17:35;;;;;;;9.43;5.50;;;;;;;-0.14;100.00;100624.63;4910202;29;20058;-91
2021/01/02 06:20:06;;;;;;;8.23;4.70;;;;;;;-0.12;100.00;100615.13;4925687;29;20532;-93
2021/01/02 06:22:33;;;;;;;9.73;5.30;;;;;;;-0.09;100.00;100616.06;4927370;29;20083;-91
2021/01/02 06:24:59;;;;;;;11.73;6.70;;;;;;;-0.10;100.00;100622.09;4928889;29;20573;-91
2021/01/02 06:27:26;;;;;;;10.20;5.77;;;;;;;-0.06;100.00;100617.88;4929291;29;20043;-91
2021/01/02 06:29:55;;;;;;;10.47;5.70;;;;;;;-0.08;100.00;100620.44;4929124;29;20051;-90
2021/01/02 06:32:24;;;;;;;11.03;6.03;;;;;;;-0.04;100.00;100623.97;4927501;29;20047;-90
2021/01/02 06:35:06;;;;;;;11.73;5.83;;;;;;;-0.02;100.00;100627.47;4910747;29;20102;-90
2021/01/02 06:37:47;;;;;;;10.83;5.70;;;;;;;-0.04;100.00;100624.84;4927128;29;20051;-92
2021/01/02 06:40:27;;;;;;;11.40;6.57;;;;;;;-0.03;100.00;100633.50;4926575;29;20098;-91
2021/01/02 06:42:58;;;;;;;10.77;5.93;;;;;;;-0.05;100.00;100632.63;4925701;29;20464;-91
2021/01/02 06:45:37;;;;;;;11.47;6.60;;;;;;;-0.02;100.00;100638.75;4925492;29;20043;-91
2021/01/02 06:48:15;;;;;;;12.97;7.00;;;;;;;-0.03;100.00;100643.91;4924511;29;20079;-91
2021/01/02 06:50:45;;;;;;;13.20;6.87;;;;;;;-0.04;100.00;100650.81;4924378;29;20078;-90
2021/01/02 06:53:32;;;;;;;9.73;6.40;;;;;;;-0.02;100.00;100646.53;4925228;29;20043;-91
2021/01/02 06:56:09;;;;;;;13.83;7.73;;;;;;;-0.03;100.00;100652.56;4925232;29;20075;-90
2021/01/02 06:58:37;;;;;;;12.13;6.13;;;;;;;-0.04;100.00;100653.41;4941545;29;20043;-90
2021/01/02 07:01:05;;;;;;;13.47;6.67;;;;;;;-0.03;100.00;100655.16;4942613;29;20138;-90
2021/01/02 07:03:39;;;;;;;15.53;7.57;;;;;;;0.01;100.00;100663.91;4954197;28;20047;-91
2021/01/02 07:06:17;;;;;;;13.07;6.20;;;;;;;0.01;100.00;100655.25;4960256;28;20051;-90
2021/01/02 07:08:47;;;;;;;12.80;7.27;;;;;;;0.02;100.00;100662.19;4959588;28;20401;-90
2021/01/02 07:11:23;;;;;;;12.33;7.00;;;;;;;0.04;100.00;100655.31;4960058;28;20046;-91
2021/01/02 07:16:36;;;;;;;;;;;;;;;0.04;100.00;100666.56;4976622;28;20137;-91
2021/01/02 07:19:31;;;;;;;11.83;6.87;;;;;;;0.03;100.00;100663.94;4960196;28;19959;-93
2021/01/02 07:22:03;;;;;;;14.18;7.25;;;;;;;0.06;100.00;100667.47;4958815;28;20043;-90
2021/01/02 07:24:43;;;;;;;13.90;7.40;;;;;;;0.09;100.00;100664.09;4958156;28;20137;-91
2021/01/02 07:27:11;;;;;;;13.77;7.23;;;;;;;0.10;100.00;100671.91;4958698;28;20145;-91
2021/01/02 07:29:50;;;;;;;15.70;7.57;;;;;;;0.12;100.00;100675.41;4943227;28;20492;-91
2021/01/02 07:32:24;;;;;;;13.77;7.97;;;;;;;0.10;100.00;100682.31;4943233;28;20050;-90
2021/01/02 07:34:58;;;;;;;16.53;8.13;;;;;;;0.12;100.00;100680.59;4942508;28;20042;-89
2021/01/02 07:37:32;;;;;;;13.47;7.10;;;;;;;0.16;100.00;100685.00;4943670;28;20043;-91
2021/01/02 07:40:05;;;;;;;16.43;8.07;;;;;;;0.20;100.00;100693.75;4942602;28;20134;-90
2021/01/02 07:42:34;;;;;;;12.63;7.67;;;;;;;0.21;100.00;100698.13;4958363;28;20141;-89
2021/01/02 07:45:04;;;;;;;17.40;7.87;;;;;;;0.23;100.00;100699.91;4943226;28;20047;-92
2021/01/02 07:47:31;;;;;;;16.60;7.90;;;;;;;0.25;100.00;100705.13;4957158;28;20050;-91
2021/01/02 07:50:10;;;;;;;14.63;8.87;;;;;;;0.30;100.00;100710.44;4941878;28;20111;-90
2021/01/02 07:52:50;;;;;;;14.07;7.27;;;;;;;0.32;100.00;100708.75;4942501;28;20142;-90
2021/01/02 07:55:34;;;;;;;14.27;7.63;;;;;;;0.35;100.00;100721.81;4959753;28;20047;-91
2021/01/02 07:58:02;;;;;;;13.93;8.50;;;;;;;0.42;100.00;100715.88;4943713;28;20184;-90
2021/01/02 08:00:29;;;;;;;16.77;8.67;;;;;;;0.41;100.00;100717.59;4941443;28;20039;-90
2021/01/02 08:03:06;;;;;;;16.30;9.00;;;;;;;0.45;100.00;100718.56;4941244;28;20047;-90
2021/01/02 08:05:32;;;;;;;18.90;8.57;;;;;;;0.49;100.00;100723.84;4941842;28;20361;-90
2021/01/02 08:08:01;;;;;;;14.70;8.97;;;;;;;0.50;100.00;100727.31;4942499;28;20081;-91
2021/01/02 08:10:29;;;;;;;17.40;8.20;;;;;;;0.54;100.00;100729.16;4941557;28;20159;-90
2021/01/02 08:12:57;;;;;;;17.07;8.47;;;;;;;0.54;100.00;100730.03;4941105;28;20070;-90
2021/01/02 08:15:37;;;;;;;14.90;8.47;;;;;;;0.57;100.00;100731.81;4941615;28;20081;-90
2021/01/02 08:18:06;;;;;;;16.03;9.07;;;;;;;0.57;100.00;100732.69;4941922;28;20050;-91
2021/01/02 08:20:32;;;;;;;13.97;8.13;;;;;;;0.59;100.00;100742.22;4940911;28;20479;-90
2021/01/02 08:23:06;;;;;;;13.17;7.97;;;;;;;0.59;100.00;100740.53;4941141;28;20075;-91
2021/01/02 08:25:33;;;;;;;16.50;8.57;;;;;;;0.61;100.00;100743.16;4941135;28;20050;-90
2021/01/02 08:28:03;;;;;;;17.77;9.27;;;;;;;0.61;100.00;100741.44;4941338;28;20055;-90
2021/01/02 08:30:30;;;;;;;17.77;9.37;;;;;;;0.63;100.00;100749.25;4940740;28;20109;-90
2021/01/02 08:32:59;;;;;;;20.83;9.70;;;;;;;0.64;100.00;100746.69;4940826;28;20079;-90
2021/01/02 08:35:29;;;;;;;17.23;9.27;;;;;;;0.69;100.00;100749.41;4957534;28;20038;-90
2021/01/02 08:38:07;;;;;;;16.60;8.27;;;;;;;0.68;100.00;100745.06;4943798;28;20074;-91
2021/01/02 08:40:37;;;;;;;16.57;8.93;;;;;;;0.69;100.00;100759.81;4940584;28;20171;-90
2021/01/02 08:43:04;;;;;;;16.83;10.43;;;;;;;0.71;100.00;100753.78;4958137;28;20496;-90
2021/01/02 08:45:33;;;;;;;18.27;9.87;;;;;;;0.70;100.00;100756.34;4957009;28;20126;-92
2021/01/02 08:48:04;;;;;;;17.47;8.93;;;;;;;0.71;100.00;100761.59;4942603;28;20054;-90
2021/01/02 08:50:38;;;;;;;16.87;9.13;;;;;;;0.75;100.00;100765.09;4957929;28;20436;-90
2021/01/02 08:53:31;;;;;;;18.67;9.43;;;;;;;0.77;100.00;100766.03;4942846;28;20103;-90
2021/01/02 08:56:27;;;;;;;20.73;9.70;;;;;;;0.78;100.00;100773.00;4942649;28;20588;-90
2021/01/02 08:58:54;;;;;;;20.42;10.32;;;;;;;0.74;100.00;100774.63;4941908;28;20051;-90
2021/01/02 09:01:21;;;;;;;15.13;8.90;;;;;;;0.81;100.00;100775.66;4941082;28;20134;-91
2021/01/02 09:03:49;;;;;;;22.30;10.87;;;;;;;0.83;100.00;100773.94;4940227;28;20050;-91
2021/01/02 09:06:21;;;;;;;18.73;11.13;;;;;;;0.90;100.00;100780.16;4940438;28;20053;-90
2021/01/02 09:09:07;;;;;;;21.13;10.40;;;;;;;0.95;100.00;100784.63;4956331;28;20062;-90
2021/01/02 09:11:51;;;;;;;16.83;8.70;;;;;;;1.02;100.00;100793.44;4940888;28;20459;-90
2021/01/02 09:14:18;;;;;;;23.25;10.63;;;;;;;1.04;100.00;100794.34;4940673;28;20046;-90
2021/01/02 09:17:00;;;;;;;20.13;9.90;;;;;;;1.08;100.00;100793.53;4940369;28;20047;-91
2021/01/02 09:19:26;;;;;;;18.50;9.53;;;;;;;1.10;100.00;100799.66;4956114;28;20046;-90
2021/01/02 09:21:54;;;;;;;20.97;10.77;;;;;;;1.16;100.00;100801.50;4956027;28;20082;-91
2021/01/02 09:24:22;;;;;;;18.47;10.03;;;;;;;1.14;100.00;100806.69;4955920;28;20039;-92
2021/01/02 09:26:53;;;;;;;20.20;10.77;;;;;;;1.16;100.00;100804.97;4941338;28;20455;-90
2021/01/02 09:29:21;;;;;;;17.67;9.17;;;;;;;1.20;100.00;100805.94;4941247;28;20440;-90
2021/01/02 09:31:48;;;;;;;19.97;9.27;;;;;;;1.25;100.00;100805.16;4941106;28;20050;-90
2021/01/02 09:34:14;;;;;;;19.60;9.93;;;;;;;1.33;100.00;100807.91;4939988;28;20050;-90
2021/01/02 09:36:41;;;;;;;19.27;10.43;;;;;;;1.40;100.00;100804.56;4956609;28;20326;-89
2021/01/02 09:39:08;;;;;;;19.23;10.50;;;;;;;1.42;100.00;100805.47;4940758;28;20038;-92
2021/01/02 09:41:35;;;;;;;18.00;9.50;;;;;;;1.51;100.00;100802.16;4940264;28;20110;-89
2021/01/02 09:44:02;;;;;;;19.03;10.33;;;;;;;1.60;100.00;100804.97;4942964;28;20043;-91
2021/01/02 09:46:49;;;;;;;18.90;10.77;;;;;;;1.72;100.00;100806.91;4948691;28;20042;-89
2021/01/02 09:49:16;;;;;;;20.50;11.20;;;;;;;1.87;100.00;100809.78;4944355;28;20047;-89
2021/01/02 09:51:42;;;;;;;20.30;11.10;;;;;;;1.93;100.00;100802.03;4959957;28;20051;-89
2021/01/02 09:54:09;;;;;;;19.07;10.10;;;;;;;2.09;100.00;100801.44;4959606;28;20051;-89
2021/01/02 09:56:43;;;;;;;18.63;9.50;;;;;;;2.28;100.00;100810.44;4944900;28;20553;-88
2021/01/02 09:59:26;;;;;;;17.60;9.40;;;;;;;2.45;100.00;100808.97;4960947;28;20415;-89
2021/01/02 10:01:52;;;;;;;20.30;10.50;;;;;;;2.53;99.98;100807.34;4944758;28;20127;-89
2021/01/02 10:04:19;;;;;;;16.23;10.43;;;;;;;2.59;98.45;100809.16;4944876;28;20492;-91
2021/01/02 10:06:46;;;;;;;21.93;10.90;;;;;;;2.61;96.27;100804.84;4945110;28;20046;-90
2021/01/02 10:09:28;;;;;;;19.03;9.27;;;;;;;2.59;97.30;100808.28;4945100;28;20137;-89
2021/01/02 10:11:56;;;;;;;14.90;8.20;;;;;;;2.57;97.72;100802.19;4960314;28;20069;-90
2021/01/02 10:14:23;;;;;;;19.10;11.57;;;;;;;2.63;97.98;100808.34;4944186;28;20043;-90
2021/01/02 10:16:49;;;;;;;18.73;9.77;;;;;;;2.61;98.14;100804.84;4943103;28;20039;-90
2021/01/02 10:19:15;;;;;;;18.47;10.67;;;;;;;2.69;97.72;100803.25;4936595;28;20461;-89
2021/01/02 10:21:48;;;;;;;19.93;9.93;;;;;;;2.63;97.82;100797.94;4924627;29;20043;-90
2021/01/02 10:24:19;;;;;;;20.10;10.80;;;;;;;2.64;97.59;100804.88;4954296;28;20038;-90
2021/01/02 10:26:46;;;;;;;20.47;11.77;;;;;;;2.65;97.47;100800.56;4927488;28;20051;-90
2021/01/02 10:29:15;;;;;;;20.43;11.23;;;;;;;2.69;97.50;100803.25;4932852;28;20049;-90
2021/01/02 10:31:42;;;;;;;23.97;12.50;;;;;;;2.76;98.10;100805.03;4928939;28;20412;-90
2021/01/02 10:34:08;;;;;;;21.23;10.53;;;;;;;2.73;97.54;100802.41;4944680;28;20820;-90
2021/01/02 10:36:35;;;;;;;19.77;10.10;;;;;;;2.76;97.35;100802.44;4938786;28;20051;-90
2021/01/02 10:39:02;;;;;;;16.63;10.63;;;;;;;2.84;97.81;100792.09;4926590;29;20224;-88
2021/01/02 10:41:28;;;;;;;18.47;10.03;;;;;;;2.87;97.39;100797.38;4944329;28;20503;-90
2021/01/02 10:43:54;;;;;;;25.03;14.07;;;;;;;2.85;96.97;100804.28;4926585;28;20055;-92
2021/01/02 10:46:21;;;;;;;28.83;18.03;;;;;;;2.83;96.85;100795.56;4924822;28;20050;-90
2021/01/02 10:48:47;;;;;;;32.87;20.80;;;;;;;2.82;97.16;100799.91;4934721;28;20412;-91
2021/01/02 10:51:18;;;;;;;21.73;12.80;;;;;;;2.82;96.87;100786.88;4922359;28;20071;-91
2021/01/02 10:53:45;;;;;;;18.57;10.70;;;;;;;2.91;97.35;100793.06;4936534;28;20039;-91
2021/01/02 10:56:16;;;;;;;20.30;11.27;;;;;;;2.97;97.22;100786.19;4923225;29;20047;-91
2021/01/02 10:58:43;;;;;;;17.90;10.47;;;;;;;3.01;95.11;100787.97;4916070;28;20328;-90
2021/01/02 11:01:11;;;;;;;23.33;14.67;;;;;;;2.97;95.85;100791.41;4934911;29;20043;-91
2021/01/02 11:03:38;;;;;;;23.40;13.07;;;;;;;2.96;95.56;100796.63;4921603;28;20142;-91
2021/01/02 11:06:09;;;;;;;22.93;11.90;;;;;;;3.03;96.13;100788.88;4922352;28;20530;-90
2021/01/02 11:08:36;;;;;;;22.13;12.10;;;;;;;2.97;95.60;100793.16;4930881;29;20420;-91
2021/01/02 11:11:04;;;;;;;18.50;10.10;;;;;;;3.04;95.80;100784.53;4954686;28;20129;-91
2021/01/02 11:13:31;;;;;;;19.67;11.33;;;;;;;3.05;95.53;100786.28;4942452;28;20539;-91
2021/01/02 11:15:57;;;;;;;20.83;11.40;;;;;;;3.12;95.69;100782.91;4942653;28;20231;-91
2021/01/02 11:18:24;;;;;;;21.10;10.77;;;;;;;3.22;96.37;100784.75;4933272;29;20411;-91
2021/01/02 11:20:51;;;;;;;25.40;13.80;;;;;;;3.15;94.03;100784.66;4949109;28;20239;-91
2021/01/02 11:23:19;;;;;;;22.40;11.30;;;;;;;3.20;94.89;100778.66;4939454;28;20283;-91
2021/01/02 11:25:46;;;;;;;21.53;11.10;;;;;;;3.17;94.33;100781.19;4935319;28;20129;-91
2021/01/02 11:28:13;;;;;;;22.63;13.33;;;;;;;3.12;94.27;100784.63;4941996;28;20250;-90
2021/01/02 11:30:40;;;;;;;22.93;12.27;;;;;;;3.12;94.46;100780.28;4919281;29;20035;-92
2021/01/02 11:33:06;;;;;;;24.63;12.00;;;;;;;3.23;95.04;100777.78;4925183;28;20047;-90
2021/01/02 11:35:33;;;;;;;23.30;13.23;;;;;;;3.31;94.59;100774.41;5025924;23;20106;-70
2021/01/02 11:37:59;;;;;;;23.00;12.13;;;;;;;3.25;93.82;100774.34;5042227;28;20508;-70
2021/01/02 11:40:27;;;;;;;20.63;11.77;;;;;;;3.33;93.51;100774.41;5043103;28;21708;-70
2021/01/02 11:42:55;;;;;;;23.23;13.43;;;;;;;3.27;93.82;100777.81;5031140;28;20045;-70
2021/01/02 11:45:22;;;;;;;25.90;13.40;;;;;;;3.28;94.55;100770.88;5026952;28;20537;-72
2021/01/02 11:47:51;;;;;;;24.93;13.17;;;;;;;3.27;93.72;100774.34;5023086;28;20128;-73